Arietta, New York
Current Conditions -  °F | °C
As of 4:35 AM on Saturday 25 Oct 2014 (Local Time) from KNY0 Reporting Station
Overcast Overcast  
Wind Chill: 39°   Ceiling: 1400
Heat Index: 44°   Visibility: 10mi
Dew Point: 40°   Wind: 10mph
Humidity: 86%   Direction: 260°W
Pressure: 29.84"   Gusts: NA
Location:  43.5975°N, 74.5775°W
Report Text: KNY0 250835Z AUTO 26009KT 10SM OVC014 07/05 A2984 RMK AO2 T00670045
Loading
Personal Weather Stations






























Interactive Weather Map New forecast layout! Learn more

10-Day Weather Forecast

Advertisements
Track Severe Weather on mobile